Harrison, Michigan
Current Conditions -  °F | °C
As of 2:53 AM on Friday 24 Oct 2014 (Local Time) from KHTL Reporting Station
Overcast Overcast  
Wind Chill: 38°   Ceiling: 6500
Heat Index: 38°   Visibility: 10mi
Dew Point: 37°   Wind: 0mph
Humidity: 97%   Direction: NA
Pressure: 30.05"   Gusts: NA
Location:  44.02°N, 84.8°W
Report Text: KHTL 240653Z AUTO 00000KT 10SM OVC065 03/03 A3005 RMK AO2 SLP183 T00330028
Loading
Personal Weather Stations






























Interactive Weather Map New forecast layout! Learn more

10-Day Weather Forecast

Advertisements
Track Severe Weather on mobile